createdAt,value
2019-01-22T00:00:09.748Z,1.67
2019-01-22T00:02:38.256Z,1.68
2019-01-22T00:05:09.030Z,1.67
2019-01-22T00:07:37.452Z,1.67
2019-01-22T00:10:09.156Z,1.70
2019-01-22T00:12:37.786Z,1.71
2019-01-22T00:15:11.855Z,1.69
2019-01-22T00:17:40.657Z,1.63
2019-01-22T00:20:11.999Z,1.53
2019-01-22T00:22:40.433Z,1.51
2019-01-22T00:25:11.711Z,1.44
2019-01-22T00:27:40.313Z,1.40
2019-01-22T00:30:14.966Z,1.43
2019-01-22T00:32:43.669Z,1.46
2019-01-22T00:35:12.270Z,1.51
2019-01-22T00:37:40.834Z,1.49
2019-01-22T00:40:12.055Z,1.46
2019-01-22T00:42:40.902Z,1.45
2019-01-22T00:45:09.702Z,1.40
2019-01-22T00:47:38.181Z,1.38
2019-01-22T00:50:09.772Z,1.33
2019-01-22T00:52:38.211Z,1.33
2019-01-22T00:55:09.802Z,1.34
2019-01-22T00:57:38.235Z,1.34
2019-01-22T01:00:12.582Z,1.38
2019-01-22T01:02:41.103Z,1.41
2019-01-22T01:05:10.085Z,1.31
2019-01-22T01:07:38.519Z,1.29
2019-01-22T01:10:10.090Z,1.33
2019-01-22T01:12:38.551Z,1.26
2019-01-22T01:15:10.383Z,1.27
2019-01-22T01:17:38.883Z,1.17
2019-01-22T01:22:39.502Z,1.11
2019-01-22T01:25:10.396Z,1.12
2019-01-22T01:27:38.959Z,1.14
2019-01-22T01:30:10.474Z,1.17
2019-01-22T01:32:38.917Z,1.16
2019-01-22T01:35:07.877Z,1.16
2019-01-22T01:37:36.387Z,1.11
2019-01-22T01:40:08.134Z,1.09
2019-01-22T01:42:36.562Z,1.09
2019-01-22T01:45:08.456Z,1.06
2019-01-22T01:47:36.881Z,1.04
2019-01-22T01:50:08.744Z,1.00
2019-01-22T01:52:37.169Z,1.00
2019-01-22T01:55:07.547Z,0.84
2019-01-22T01:57:36.050Z,0.89
2019-01-22T02:00:07.486Z,0.90
2019-01-22T02:02:36.086Z,0.89
2019-01-22T02:05:06.209Z,0.90
2019-01-22T02:07:34.879Z,0.89
2019-01-22T02:10:04.298Z,0.92
2019-01-22T02:12:36.280Z,0.96
2019-01-22T02:15:10.975Z,0.99
2019-01-22T02:17:45.265Z,0.93
2019-01-22T02:20:25.686Z,0.92
2019-01-22T02:23:06.006Z,0.91
2019-01-22T02:25:52.306Z,0.91
2019-01-22T02:28:42.126Z,0.93
2019-01-22T02:31:19.408Z,0.85
2019-01-22T02:34:05.552Z,0.86
2019-01-22T02:36:42.882Z,0.77
2019-01-22T02:39:26.604Z,0.79
2019-01-22T02:41:58.102Z,0.76
2019-01-22T02:44:50.577Z,0.78
2019-01-22T02:47:30.679Z,0.72
2019-01-22T02:50:27.992Z,0.65
2019-01-22T02:52:59.474Z,0.58
2019-01-22T02:55:33.478Z,0.56
2019-01-22T02:58:04.983Z,0.49
2019-01-22T03:01:11.814Z,0.51
2019-01-22T03:04:08.754Z,0.49
2019-01-22T03:06:42.762Z,0.46
2019-01-22T03:09:42.971Z,0.41
2019-01-22T03:12:23.374Z,0.33
2019-01-22T03:15:09.947Z,0.32
2019-01-22T03:17:47.027Z,0.34
2019-01-22T03:20:32.951Z,0.30
2019-01-22T03:23:19.308Z,0.24
2019-01-22T03:25:56.215Z,0.20
2019-01-22T03:28:30.378Z,0.18
2019-01-22T03:31:01.912Z,0.12
2019-01-22T03:33:36.515Z,0.10
2019-01-22T03:36:17.014Z,0.03
2019-01-22T03:38:51.204Z,-0.02
2019-01-22T03:41:57.012Z,-0.04
2019-01-22T03:44:31.156Z,-0.06
2019-01-22T03:47:35.835Z,-0.08
2019-01-22T03:50:15.657Z,-0.09
2019-01-22T03:52:59.205Z,-0.10
2019-01-22T03:55:42.274Z,-0.14
2019-01-22T03:58:10.742Z,-0.20
2019-01-22T04:00:40.790Z,-0.24
2019-01-22T04:03:09.363Z,-0.23
2019-01-22T04:05:37.870Z,-0.22
2019-01-22T04:08:06.580Z,-0.20
2019-01-22T04:10:35.288Z,-0.19
2019-01-22T04:13:03.727Z,-0.17
2019-01-22T04:15:35.587Z,-0.19
2019-01-22T04:18:04.688Z,-0.26
2019-01-22T04:20:33.171Z,-0.30
2019-01-22T04:23:01.850Z,-0.29
2019-01-22T04:25:33.386Z,-0.28
2019-01-22T04:28:13.880Z,-0.35
2019-01-22T04:30:51.123Z,-0.38
2019-01-22T04:33:25.628Z,-0.37
2019-01-22T04:36:05.288Z,-0.44
2019-01-22T04:38:39.549Z,-0.46
2019-01-22T04:41:25.902Z,-0.43
2019-01-22T04:44:13.803Z,-0.46
2019-01-22T04:47:14.272Z,-0.47
2019-01-22T04:50:00.632Z,-0.51
2019-01-22T04:52:40.472Z,-0.55
2019-01-22T04:55:11.943Z,-0.59
2019-01-22T04:57:48.708Z,-0.58
2019-01-22T05:00:36.688Z,-0.65
2019-01-22T05:03:16.881Z,-0.63
2019-01-22T05:05:56.665Z,-0.66
2019-01-22T05:08:28.162Z,-0.63
2019-01-22T05:11:17.466Z,-0.60
2019-01-22T05:13:54.544Z,-0.60
2019-01-22T05:16:34.290Z,-0.65
2019-01-22T05:19:08.759Z,-0.70
2019-01-22T05:22:04.272Z,-0.67
2019-01-22T05:24:41.885Z,-0.68
2019-01-22T05:27:34.443Z,-0.74
2019-01-22T05:30:24.026Z,-0.79
2019-01-22T05:32:55.539Z,-0.84
2019-01-22T05:35:44.606Z,-0.92
2019-01-22T05:38:16.153Z,-0.97
2019-01-22T05:41:02.634Z,-0.97
2019-01-22T05:43:52.040Z,-0.96
2019-01-22T05:46:39.730Z,-0.96
2019-01-22T05:49:26.352Z,-0.94
2019-01-22T05:52:12.858Z,-0.97
2019-01-22T05:54:47.253Z,-1.01
2019-01-22T05:57:16.863Z,-1.00
2019-01-22T06:00:05.170Z,-1.05
2019-01-22T06:02:36.754Z,-1.02
2019-01-22T06:05:41.458Z,-1.06
2019-01-22T06:08:24.719Z,-1.08
2019-01-22T06:10:56.240Z,-1.08
2019-01-22T06:13:33.440Z,-1.08
2019-01-22T06:16:29.400Z,-1.08
2019-01-22T06:19:07.085Z,-1.10
2019-01-22T06:22:08.821Z,-1.10
2019-01-22T06:24:40.409Z,-1.13
2019-01-22T06:27:11.905Z,-1.12
2019-01-22T06:29:55.286Z,-1.14
2019-01-22T06:32:29.858Z,-1.14
2019-01-22T06:35:23.878Z,-1.13
2019-01-22T06:38:07.280Z,-1.16
2019-01-22T06:40:56.747Z,-1.18
2019-01-22T06:43:45.955Z,-1.20
2019-01-22T06:46:38.857Z,-1.26
2019-01-22T06:49:19.396Z,-1.29
2019-01-22T06:51:56.753Z,-1.29
2019-01-22T06:54:39.531Z,-1.44
2019-01-22T06:57:23.848Z,-1.40
2019-01-22T07:00:24.286Z,-1.45
2019-01-22T07:02:58.484Z,-1.43
2019-01-22T07:05:41.811Z,-1.39
2019-01-22T07:08:16.436Z,-1.38
2019-01-22T07:10:59.986Z,-1.39
2019-01-22T07:13:49.325Z,-1.41
2019-01-22T07:16:23.369Z,-1.40
2019-01-22T07:18:57.480Z,-1.38
2019-01-22T07:21:31.971Z,-1.37
2019-01-22T07:24:18.622Z,-1.35
2019-01-22T07:27:04.827Z,-1.29
2019-01-22T07:30:02.141Z,-1.25
2019-01-22T07:32:48.800Z,-1.24
2019-01-22T07:35:57.711Z,-1.26
2019-01-22T07:38:40.876Z,-1.30
2019-01-22T07:41:12.400Z,-1.34
2019-01-22T07:43:59.127Z,-1.55
2019-01-22T07:46:50.594Z,-1.48
2019-01-22T07:49:33.720Z,-1.36
2019-01-22T07:52:14.159Z,-1.47
2019-01-22T07:55:09.775Z,-1.48
2019-01-22T07:57:53.446Z,-1.56
2019-01-22T08:00:43.188Z,-1.64
2019-01-22T08:03:22.241Z,-1.50
2019-01-22T08:05:55.385Z,-1.40
2019-01-22T08:08:33.522Z,-1.32
2019-01-22T08:11:22.701Z,-1.27
2019-01-22T08:13:59.896Z,-1.23
2019-01-22T08:16:31.384Z,-1.12
2019-01-22T08:19:02.874Z,-1.08
2019-01-22T08:21:56.770Z,-1.06
2019-01-22T08:24:43.395Z,-1.06
2019-01-22T08:27:17.603Z,-1.02
2019-01-22T08:29:51.916Z,-0.98
2019-01-22T08:32:35.381Z,-0.94
2019-01-22T08:35:06.860Z,-0.95
2019-01-22T08:38:04.178Z,-0.94
2019-01-22T08:40:53.707Z,-1.00
2019-01-22T08:43:25.203Z,-1.00
2019-01-22T08:46:05.679Z,-1.00
2019-01-22T08:48:52.530Z,-0.92
2019-01-22T08:51:35.952Z,-0.94
2019-01-22T08:54:19.548Z,-0.91
2019-01-22T08:56:53.634Z,-0.84
2019-01-22T08:59:40.827Z,-0.78
2019-01-22T09:02:27.518Z,-0.71
2019-01-22T09:05:17.132Z,-0.75
2019-01-22T09:08:03.819Z,-0.72
2019-01-22T09:13:28.007Z,-0.89
2019-01-22T09:16:17.492Z,-0.77
2019-01-22T09:19:05.702Z,-0.64
2019-01-22T09:21:46.077Z,-0.65
2019-01-22T09:24:26.502Z,-0.47
2019-01-22T09:27:06.593Z,-0.33
2019-01-22T09:29:53.448Z,-0.24
2019-01-22T09:32:27.832Z,-0.17
2019-01-22T09:35:11.393Z,-0.12
2019-01-22T09:37:40.916Z,-0.05
2019-01-22T09:40:10.389Z,0.03
2019-01-22T09:42:38.819Z,0.10
2019-01-22T09:45:09.197Z,0.10
2019-01-22T09:47:37.791Z,0.16
2019-01-22T09:50:09.071Z,0.21
2019-01-22T09:52:37.588Z,0.23
2019-01-22T09:55:09.067Z,0.30
2019-01-22T09:57:37.634Z,0.31
2019-01-22T10:00:09.150Z,0.34
2019-01-22T10:02:37.647Z,0.45
2019-01-22T10:05:06.942Z,0.53
2019-01-22T10:07:35.374Z,0.63
2019-01-22T10:10:06.857Z,0.67
2019-01-22T10:12:36.706Z,0.74
2019-01-22T10:15:08.193Z,0.71
2019-01-22T10:17:36.632Z,0.75
2019-01-22T10:20:08.121Z,0.85
2019-01-22T10:22:36.614Z,0.88
2019-01-22T10:25:07.592Z,0.96
2019-01-22T10:27:36.103Z,1.08
2019-01-22T10:30:07.688Z,1.15
2019-01-22T10:32:36.111Z,1.21
2019-01-22T10:35:06.209Z,1.24
2019-01-22T10:37:34.656Z,1.19
2019-01-22T10:40:03.276Z,1.23
2019-01-22T10:42:31.713Z,1.27
2019-01-22T10:45:00.189Z,1.22
2019-01-22T10:47:28.585Z,1.16
2019-01-22T10:49:57.046Z,1.09
2019-01-22T10:52:25.465Z,1.09
2019-01-22T10:54:53.923Z,1.16
2019-01-22T10:57:22.437Z,1.26
2019-01-22T10:59:50.884Z,1.28
2019-01-22T11:02:19.405Z,1.20
2019-01-22T11:04:47.842Z,1.18
2019-01-22T11:07:16.354Z,1.26
2019-01-22T11:09:44.872Z,1.41
2019-01-22T11:12:13.407Z,1.52
2019-01-22T11:14:41.845Z,1.55
2019-01-22T11:17:10.288Z,1.58
2019-01-22T11:19:40.857Z,1.67
2019-01-22T11:22:09.362Z,1.73
2019-01-22T11:24:37.829Z,1.74
2019-01-22T11:27:06.353Z,1.82
2019-01-22T11:29:34.778Z,1.85
2019-01-22T11:32:03.283Z,1.88
2019-01-22T11:34:31.851Z,1.96
2019-01-22T11:37:00.279Z,1.88
2019-01-22T11:39:28.738Z,1.87
2019-01-22T11:41:57.168Z,1.92
2019-01-22T11:44:25.656Z,2.09
2019-01-22T11:46:54.088Z,2.22
2019-01-22T11:49:23.433Z,2.40
2019-01-22T11:51:51.942Z,2.31
2019-01-22T11:54:20.383Z,2.18
2019-01-22T11:56:48.851Z,2.24
2019-01-22T11:59:17.270Z,2.15
2019-01-22T12:01:45.694Z,2.15
2019-01-22T12:04:14.346Z,2.14
2019-01-22T12:06:42.772Z,2.13
2019-01-22T12:09:11.195Z,2.24
2019-01-22T12:11:39.665Z,2.32
2019-01-22T12:14:08.270Z,2.40
2019-01-22T12:16:36.796Z,2.41
2019-01-22T12:19:05.232Z,2.41
2019-01-22T12:21:33.677Z,2.40
2019-01-22T12:24:02.138Z,2.42
2019-01-22T12:26:30.586Z,2.48
2019-01-22T12:28:59.079Z,2.48
2019-01-22T12:31:27.578Z,2.34
2019-01-22T12:33:56.030Z,2.19
2019-01-22T12:36:24.468Z,2.14
2019-01-22T12:38:52.917Z,2.27
2019-01-22T12:41:21.366Z,2.48
2019-01-22T12:43:49.870Z,2.43
2019-01-22T12:46:18.243Z,2.60
2019-01-22T12:48:46.794Z,2.71
2019-01-22T12:51:15.235Z,2.64
2019-01-22T12:53:45.777Z,2.70
2019-01-22T12:56:13.868Z,2.95
2019-01-22T12:58:42.287Z,3.13
2019-01-22T13:01:10.744Z,3.27
2019-01-22T13:03:39.189Z,3.43
2019-01-22T13:06:08.033Z,3.59
2019-01-22T13:08:36.464Z,3.76
2019-01-22T13:11:05.946Z,3.90
2019-01-22T13:13:34.401Z,4.02
2019-01-22T13:16:02.929Z,4.06
2019-01-22T13:18:31.447Z,3.64
2019-01-22T13:20:59.893Z,3.34
2019-01-22T13:23:28.342Z,3.27
2019-01-22T13:25:57.096Z,3.04
2019-01-22T13:28:25.527Z,3.15
2019-01-22T13:30:55.399Z,3.23
2019-01-22T13:33:23.849Z,3.26
2019-01-22T13:35:52.273Z,3.09
2019-01-22T13:38:20.724Z,2.77
2019-01-22T13:40:49.219Z,2.61
2019-01-22T13:43:17.639Z,2.46
2019-01-22T13:45:46.072Z,2.29
2019-01-22T13:48:15.762Z,2.16
2019-01-22T13:50:44.202Z,2.17
2019-01-22T13:53:12.641Z,2.13
2019-01-22T13:55:41.143Z,1.94
2019-01-22T13:58:09.583Z,1.90
2019-01-22T14:00:38.016Z,1.98
2019-01-22T14:03:07.093Z,1.87
2019-01-22T14:05:35.616Z,1.82
2019-01-22T14:08:04.981Z,1.88
2019-01-22T14:10:33.436Z,1.71
2019-01-22T14:13:01.901Z,1.71
2019-01-22T14:15:32.965Z,1.81
2019-01-22T14:18:01.419Z,1.79
2019-01-22T14:20:29.910Z,1.83
2019-01-22T14:22:58.349Z,1.94
2019-01-22T14:25:26.928Z,2.01
2019-01-22T14:27:55.365Z,2.08
2019-01-22T14:30:29.910Z,2.12
2019-01-22T14:32:58.510Z,2.08
2019-01-22T14:35:27.051Z,2.09
2019-01-22T14:37:55.468Z,1.97
2019-01-22T14:40:23.983Z,2.01
2019-01-22T14:42:52.499Z,1.98
2019-01-22T14:45:23.080Z,2.05
2019-01-22T14:47:51.579Z,1.89
2019-01-22T14:50:32.018Z,1.87
2019-01-22T14:53:00.459Z,1.92
2019-01-22T14:55:28.974Z,1.75
2019-01-22T14:57:57.395Z,1.76
2019-01-22T15:00:27.975Z,1.64
2019-01-22T15:02:57.739Z,1.51
2019-01-22T15:05:26.294Z,1.51
2019-01-22T15:07:54.791Z,1.53
2019-01-22T15:10:24.091Z,1.54
2019-01-22T15:13:14.550Z,1.48
2019-01-22T15:15:42.988Z,1.40
2019-01-22T15:18:11.430Z,1.41
2019-01-22T15:20:39.865Z,1.33
2019-01-22T15:23:08.362Z,1.18
2019-01-22T15:25:36.870Z,1.03
2019-01-22T15:28:05.356Z,1.06
2019-01-22T15:30:34.664Z,1.02
2019-01-22T15:33:03.623Z,0.98
2019-01-22T15:35:32.117Z,1.05
2019-01-22T15:38:00.558Z,0.97
2019-01-22T15:40:30.719Z,0.93
2019-01-22T15:42:59.281Z,0.80
2019-01-22T15:45:28.428Z,0.84
2019-01-22T15:47:57.137Z,0.78
2019-01-22T15:50:25.566Z,0.72
2019-01-22T15:52:54.014Z,0.62
2019-01-22T15:55:27.855Z,0.48
2019-01-22T15:57:56.386Z,0.39
2019-01-22T16:00:26.376Z,0.43
2019-01-22T16:02:54.876Z,0.38
2019-01-22T16:05:23.574Z,0.34
2019-01-22T16:07:52.025Z,0.39
2019-01-22T16:10:20.711Z,0.30
2019-01-22T16:12:49.281Z,0.23
2019-01-22T16:15:19.904Z,0.30
2019-01-22T16:17:48.971Z,0.23
2019-01-22T16:20:19.753Z,0.30
2019-01-22T16:22:48.434Z,0.30
2019-01-22T16:25:17.016Z,0.27
2019-01-22T16:27:45.731Z,0.15
2019-01-22T16:30:22.201Z,0.11
2019-01-22T16:32:50.700Z,0.07
2019-01-22T16:35:20.962Z,0.07
2019-01-22T16:37:49.384Z,0.02
2019-01-22T16:40:18.218Z,0.07
2019-01-22T16:42:47.410Z,0.12
2019-01-22T16:45:27.871Z,0.06
2019-01-22T16:47:56.373Z,-0.04
2019-01-22T16:50:25.465Z,0.02
2019-01-22T16:52:53.976Z,-0.02
2019-01-22T16:55:28.370Z,-0.06
2019-01-22T16:57:56.797Z,-0.10
2019-01-22T17:00:30.396Z,-0.17
2019-01-22T17:02:59.186Z,-0.12
2019-01-22T17:05:27.864Z,-0.17
2019-01-22T17:07:56.402Z,-0.24
2019-01-22T17:10:25.075Z,-0.30
2019-01-22T17:12:53.529Z,-0.33
2019-01-22T17:15:22.031Z,-0.38
2019-01-22T17:17:50.486Z,-0.40
2019-01-22T17:20:24.665Z,-0.35
2019-01-22T17:22:53.113Z,-0.35
2019-01-22T17:25:21.563Z,-0.20
2019-01-22T17:27:50.021Z,-0.27
2019-01-22T17:30:23.349Z,-0.31
2019-01-22T17:33:02.131Z,-0.31
2019-01-22T17:35:31.893Z,-0.25
2019-01-22T17:38:00.343Z,-0.15
2019-01-22T17:40:29.641Z,-0.14
2019-01-22T17:42:58.153Z,-0.07
2019-01-22T17:45:26.606Z,0.02
2019-01-22T17:47:55.135Z,0.06
2019-01-22T17:50:23.556Z,0.14
2019-01-22T17:52:52.014Z,0.20
2019-01-22T17:55:20.435Z,0.19
2019-01-22T17:57:48.881Z,0.16
2019-01-22T18:00:28.050Z,0.19
2019-01-22T18:02:56.494Z,0.21
2019-01-22T18:05:24.997Z,0.24
2019-01-22T18:07:53.434Z,0.22
2019-01-22T18:10:27.200Z,0.20
2019-01-22T18:12:55.649Z,0.19
2019-01-22T18:15:24.090Z,0.18
2019-01-22T18:17:52.523Z,0.30
2019-01-22T18:20:23.646Z,0.57
2019-01-22T18:22:52.104Z,0.52
2019-01-22T18:25:20.766Z,0.55
2019-01-22T18:27:49.278Z,0.57
2019-01-22T18:30:22.868Z,0.47
2019-01-22T18:32:51.323Z,0.34
2019-01-22T18:35:22.485Z,0.31
2019-01-22T18:37:50.968Z,0.22
2019-01-22T18:40:19.462Z,0.20
2019-01-22T18:42:47.914Z,0.09
2019-01-22T18:45:19.415Z,0.00
2019-01-22T18:47:47.860Z,0.01
2019-01-22T18:50:22.086Z,-0.05
2019-01-22T18:52:50.718Z,-0.11
2019-01-22T18:55:19.380Z,-0.12
2019-01-22T18:57:47.846Z,-0.14
2019-01-22T19:00:21.270Z,-0.18
2019-01-22T19:02:49.954Z,-0.20
2019-01-22T19:05:18.558Z,-0.23
2019-01-22T19:07:47.090Z,-0.24
2019-01-22T19:10:20.975Z,-0.39
2019-01-22T19:12:49.516Z,-0.40
2019-01-22T19:17:58.420Z,-0.17
2019-01-22T19:20:26.858Z,-0.19
2019-01-22T19:22:55.324Z,-0.12
2019-01-22T19:25:28.652Z,-0.11
2019-01-22T19:27:57.128Z,-0.14
2019-01-22T19:30:28.183Z,-0.14
2019-01-22T19:32:56.654Z,-0.14
2019-01-22T19:35:25.149Z,-0.22
2019-01-22T19:37:53.663Z,-0.25
2019-01-22T19:40:23.497Z,-0.29
2019-01-22T19:42:51.990Z,-0.27
2019-01-22T19:45:26.051Z,-0.35
2019-01-22T19:47:54.581Z,-0.44
2019-01-22T19:50:23.173Z,-0.43
2019-01-22T19:52:51.690Z,-0.43
2019-01-22T19:55:20.296Z,-0.45
2019-01-22T19:57:48.874Z,-0.49
2019-01-22T20:00:20.124Z,-0.49
2019-01-22T20:02:48.749Z,-0.48
2019-01-22T20:05:18.474Z,-0.44
2019-01-22T20:07:46.987Z,-0.51
2019-01-22T20:10:16.865Z,-0.57
2019-01-22T20:12:45.572Z,-0.50
2019-01-22T20:15:16.257Z,-0.50
2019-01-22T20:17:44.718Z,-0.48
2019-01-22T20:20:15.897Z,-0.56
2019-01-22T20:22:44.499Z,-0.59
2019-01-22T20:25:13.684Z,-0.57
2019-01-22T20:27:47.994Z,-0.56
2019-01-22T20:30:15.561Z,-0.66
2019-01-22T20:32:44.023Z,-0.65
2019-01-22T20:35:12.931Z,-0.70
2019-01-22T20:37:41.439Z,-0.76
2019-01-22T20:40:14.483Z,-0.72
2019-01-22T20:42:42.906Z,-0.74
2019-01-22T20:45:20.030Z,-0.98
2019-01-22T20:47:48.468Z,-0.90
2019-01-22T20:50:19.327Z,-0.86
2019-01-22T20:52:47.545Z,-0.80
2019-01-22T20:55:21.546Z,-0.73
2019-01-22T20:57:54.687Z,-0.71
2019-01-22T21:00:22.091Z,-0.73
2019-01-22T21:05:20.234Z,-0.83
2019-01-22T21:07:49.216Z,-0.81
2019-01-22T21:10:23.078Z,-0.75
2019-01-22T21:12:51.601Z,-0.75
2019-01-22T21:15:20.288Z,-0.72
2019-01-22T21:17:48.756Z,-0.99
2019-01-22T21:20:18.508Z,-1.08
2019-01-22T21:22:47.074Z,-1.30
2019-01-22T21:25:18.594Z,-1.44
2019-01-22T21:27:47.112Z,-1.34
2019-01-22T21:30:18.881Z,-1.21
2019-01-22T21:32:47.416Z,-1.09
2019-01-22T21:35:16.006Z,-0.98
2019-01-22T21:37:44.527Z,-0.92
2019-01-22T21:40:14.633Z,-0.88
2019-01-22T21:42:43.152Z,-0.85
2019-01-22T21:45:14.656Z,-0.83
2019-01-22T21:47:43.109Z,-0.86
2019-01-22T21:50:13.817Z,-0.88
2019-01-22T21:52:42.311Z,-0.99
2019-01-22T21:55:19.218Z,-1.10
2019-01-22T21:57:47.792Z,-1.38
2019-01-22T22:00:18.724Z,-1.45
2019-01-22T22:02:47.255Z,-1.36
2019-01-22T22:05:17.572Z,-1.46
2019-01-22T22:07:46.109Z,-1.53
2019-01-22T22:10:17.148Z,-1.60
2019-01-22T22:12:45.791Z,-1.59
2019-01-22T22:15:19.711Z,-1.58
2019-01-22T22:17:48.501Z,-1.79
2019-01-22T22:20:17.600Z,-1.89
2019-01-22T22:22:46.146Z,-1.90
2019-01-22T22:25:19.588Z,-1.93
2019-01-22T22:27:48.059Z,-1.81
2019-01-22T22:30:22.207Z,-1.76
2019-01-22T22:32:50.954Z,-1.63
2019-01-22T22:35:19.437Z,-1.58
2019-01-22T22:37:47.964Z,-1.54
2019-01-22T22:40:18.275Z,-1.45
2019-01-22T22:42:46.733Z,-1.36
2019-01-22T22:45:17.448Z,-1.30
2019-01-22T22:47:45.959Z,-1.24
2019-01-22T22:50:17.589Z,-1.20
2019-01-22T22:52:46.207Z,-1.17
2019-01-22T22:55:14.780Z,-1.14
2019-01-22T22:57:43.261Z,-1.11
2019-01-22T23:00:35.357Z,-1.09
2019-01-22T23:03:05.289Z,-1.10
2019-01-22T23:05:34.248Z,-1.16
2019-01-22T23:08:02.731Z,-1.16
2019-01-22T23:10:31.328Z,-1.18
2019-01-22T23:12:59.804Z,-1.22
2019-01-22T23:15:28.481Z,-1.22
2019-01-22T23:17:56.944Z,-1.22
2019-01-22T23:20:25.398Z,-1.24
2019-01-22T23:22:53.880Z,-1.25
2019-01-22T23:25:22.321Z,-1.44
2019-01-22T23:27:50.819Z,-1.72
2019-01-22T23:30:19.521Z,-1.89
2019-01-22T23:32:47.996Z,-1.90
2019-01-22T23:35:16.685Z,-1.77
2019-01-22T23:37:45.185Z,-1.62
2019-01-22T23:40:15.696Z,-1.53
2019-01-22T23:42:44.290Z,-1.45
2019-01-22T23:45:14.377Z,-1.53
2019-01-22T23:47:42.912Z,-1.55
2019-01-22T23:50:13.425Z,-1.64
2019-01-22T23:52:41.905Z,-1.65
2019-01-22T23:55:11.295Z,-1.73
2019-01-22T23:57:40.047Z,-1.96
